sensor_id;sensor_type;location;lat;lon;timestamp;pressure;altitude;pressure_sealevel;temperature;humidity
50105;BME280;47690;39.202;-77.198;2023-02-07T00:06:45;100824.38;;;34.90;8.16
50105;BME280;47690;39.202;-77.198;2023-02-07T00:10:50;100825.22;;;34.99;8.04
50105;BME280;47690;39.202;-77.198;2023-02-07T00:13:55;100827.44;;;34.62;8.19
50105;BME280;47690;39.202;-77.198;2023-02-07T00:17:45;100836.63;;;34.76;8.07
50105;BME280;47690;39.202;-77.198;2023-02-07T00:21:35;100838.16;;;34.70;7.99
50105;BME280;47690;39.202;-77.198;2023-02-07T00:25:20;100838.97;;;34.63;8.21
50105;BME280;47690;39.202;-77.198;2023-02-07T00:28:55;100845.66;;;34.58;8.15
50105;BME280;47690;39.202;-77.198;2023-02-07T00:32:18;100843.78;;;34.51;8.20
50105;BME280;47690;39.202;-77.198;2023-02-07T00:36:26;100842.28;;;34.48;8.06
50105;BME280;47690;39.202;-77.198;2023-02-07T00:40:43;100854.00;;;34.39;8.04
50105;BME280;47690;39.202;-77.198;2023-02-07T00:44:26;100871.03;;;34.29;8.30
50105;BME280;47690;39.202;-77.198;2023-02-07T00:48:14;100865.47;;;34.14;8.37
50105;BME280;47690;39.202;-77.198;2023-02-07T00:57:22;100872.81;;;34.04;8.34
50105;BME280;47690;39.202;-77.198;2023-02-07T01:01:37;100881.72;;;33.86;8.41
50105;BME280;47690;39.202;-77.198;2023-02-07T01:06:04;100888.44;;;33.90;8.25
50105;BME280;47690;39.202;-77.198;2023-02-07T01:09:15;100891.22;;;33.72;8.30
50105;BME280;47690;39.202;-77.198;2023-02-07T01:12:50;100894.69;;;33.73;8.47
50105;BME280;47690;39.202;-77.198;2023-02-07T01:20:17;100880.75;;;33.96;8.28
50105;BME280;47690;39.202;-77.198;2023-02-07T01:23:35;100894.78;;;33.89;8.27
50105;BME280;47690;39.202;-77.198;2023-02-07T01:27:55;100881.84;;;34.11;8.10
50105;BME280;47690;39.202;-77.198;2023-02-07T01:31:33;100887.59;;;33.90;8.11
50105;BME280;47690;39.202;-77.198;2023-02-07T01:34:51;100881.22;;;33.83;8.11
50105;BME280;47690;39.202;-77.198;2023-02-07T01:38:26;100888.91;;;33.77;8.32
50105;BME280;47690;39.202;-77.198;2023-02-07T01:41:39;100898.06;;;33.75;8.48
50105;BME280;47690;39.202;-77.198;2023-02-07T01:45:04;100898.63;;;33.87;8.36
50105;BME280;47690;39.202;-77.198;2023-02-07T01:48:25;100890.44;;;33.88;8.02
50105;BME280;47690;39.202;-77.198;2023-02-07T01:52:35;100896.63;;;33.97;8.06
50105;BME280;47690;39.202;-77.198;2023-02-07T01:56:40;100899.06;;;33.74;8.19
50105;BME280;47690;39.202;-77.198;2023-02-07T02:00:38;100916.84;;;33.57;7.98
50105;BME280;47690;39.202;-77.198;2023-02-07T02:04:35;100928.38;;;33.65;8.14
50105;BME280;47690;39.202;-77.198;2023-02-07T02:07:47;100932.09;;;33.73;8.12
50105;BME280;47690;39.202;-77.198;2023-02-07T02:18:34;100936.41;;;33.65;8.29
50105;BME280;47690;39.202;-77.198;2023-02-07T02:30:38;100968.28;;;33.41;8.12
50105;BME280;47690;39.202;-77.198;2023-02-07T02:34:20;100971.47;;;33.44;8.10
50105;BME280;47690;39.202;-77.198;2023-02-07T02:41:59;100978.63;;;33.44;8.37
50105;BME280;47690;39.202;-77.198;2023-02-07T02:45:31;100997.13;;;33.37;8.20
50105;BME280;47690;39.202;-77.198;2023-02-07T02:48:43;101001.50;;;33.20;8.09
50105;BME280;47690;39.202;-77.198;2023-02-07T02:51:53;100998.47;;;32.96;8.49
50105;BME280;47690;39.202;-77.198;2023-02-07T02:54:59;101005.81;;;32.84;8.13
50105;BME280;47690;39.202;-77.198;2023-02-07T02:58:25;101009.31;;;32.85;8.59
50105;BME280;47690;39.202;-77.198;2023-02-07T03:02:06;100998.72;;;32.93;8.19
50105;BME280;47690;39.202;-77.198;2023-02-07T03:09:35;100998.66;;;32.85;8.50
50105;BME280;47690;39.202;-77.198;2023-02-07T03:23:16;100999.38;;;32.41;8.20
50105;BME280;47690;39.202;-77.198;2023-02-07T03:26:22;101014.75;;;32.19;8.81
50105;BME280;47690;39.202;-77.198;2023-02-07T03:30:49;101012.22;;;32.18;8.44
50105;BME280;47690;39.202;-77.198;2023-02-07T03:34:15;101018.06;;;31.93;8.68
50105;BME280;47690;39.202;-77.198;2023-02-07T03:40:39;101011.81;;;31.45;8.95
50105;BME280;47690;39.202;-77.198;2023-02-07T03:43:53;101001.47;;;31.32;8.47
50105;BME280;47690;39.202;-77.198;2023-02-07T03:47:04;100989.56;;;31.16;8.65
50105;BME280;47690;39.202;-77.198;2023-02-07T03:50:31;100991.66;;;31.13;8.66
50105;BME280;47690;39.202;-77.198;2023-02-07T03:53:32;100989.69;;;30.95;8.93
50105;BME280;47690;39.202;-77.198;2023-02-07T03:56:40;100986.31;;;30.93;8.95
50105;BME280;47690;39.202;-77.198;2023-02-07T04:00:08;100972.19;;;30.83;8.87
50105;BME280;47690;39.202;-77.198;2023-02-07T04:03:08;100972.53;;;30.48;8.96
50105;BME280;47690;39.202;-77.198;2023-02-07T04:06:05;100982.09;;;30.30;8.99
50105;BME280;47690;39.202;-77.198;2023-02-07T04:09:14;100982.50;;;30.25;9.07
50105;BME280;47690;39.202;-77.198;2023-02-07T04:12:49;100991.91;;;30.29;9.12
50105;BME280;47690;39.202;-77.198;2023-02-07T04:15:54;101002.78;;;30.16;8.93
50105;BME280;47690;39.202;-77.198;2023-02-07T04:18:59;100988.13;;;30.01;8.90
50105;BME280;47690;39.202;-77.198;2023-02-07T04:22:07;100991.44;;;29.93;9.14
50105;BME280;47690;39.202;-77.198;2023-02-07T04:25:09;100999.63;;;29.80;8.81
50105;BME280;47690;39.202;-77.198;2023-02-07T04:28:42;100994.84;;;29.74;9.24
50105;BME280;47690;39.202;-77.198;2023-02-07T04:32:09;100997.63;;;29.72;9.27
50105;BME280;47690;39.202;-77.198;2023-02-07T04:35:20;100984.56;;;29.59;8.87
50105;BME280;47690;39.202;-77.198;2023-02-07T04:39:03;100974.34;;;29.54;9.44
50105;BME280;47690;39.202;-77.198;2023-02-07T04:42:14;100978.03;;;29.30;9.03
50105;BME280;47690;39.202;-77.198;2023-02-07T04:45:22;100995.56;;;29.22;9.13
50105;BME280;47690;39.202;-77.198;2023-02-07T04:48:37;100988.78;;;29.29;9.61
50105;BME280;47690;39.202;-77.198;2023-02-07T04:51:47;100985.03;;;29.31;9.15
50105;BME280;47690;39.202;-77.198;2023-02-07T04:54:50;100979.19;;;29.16;9.16
50105;BME280;47690;39.202;-77.198;2023-02-07T04:58:05;100993.09;;;29.09;9.45
50105;BME280;47690;39.202;-77.198;2023-02-07T05:01:10;100995.78;;;28.97;9.46
50105;BME280;47690;39.202;-77.198;2023-02-07T05:04:33;101005.31;;;29.00;9.04
50105;BME280;47690;39.202;-77.198;2023-02-07T05:07:34;101006.88;;;28.91;9.81
50105;BME280;47690;39.202;-77.198;2023-02-07T05:11:01;100989.88;;;29.05;9.46
50105;BME280;47690;39.202;-77.198;2023-02-07T05:14:33;101004.75;;;29.17;9.48
50105;BME280;47690;39.202;-77.198;2023-02-07T05:17:45;101005.72;;;29.70;8.92
50105;BME280;47690;39.202;-77.198;2023-02-07T05:20:52;101009.75;;;28.99;9.51
50105;BME280;47690;39.202;-77.198;2023-02-07T05:24:26;101002.09;;;28.73;9.47
50105;BME280;47690;39.202;-77.198;2023-02-07T05:27:42;101003.22;;;28.48;9.86
50105;BME280;47690;39.202;-77.198;2023-02-07T05:30:55;100999.97;;;28.44;9.43
50105;BME280;47690;39.202;-77.198;2023-02-07T05:33:59;101016.00;;;28.31;9.56
50105;BME280;47690;39.202;-77.198;2023-02-07T05:37:04;101027.31;;;28.33;9.37
50105;BME280;47690;39.202;-77.198;2023-02-07T05:40:14;101026.34;;;28.34;9.73
50105;BME280;47690;39.202;-77.198;2023-02-07T05:43:49;101048.63;;;28.43;9.37
50105;BME280;47690;39.202;-77.198;2023-02-07T05:47:34;101037.78;;;28.35;9.29
50105;BME280;47690;39.202;-77.198;2023-02-07T05:50:42;101030.75;;;28.11;9.88
50105;BME280;47690;39.202;-77.198;2023-02-07T05:54:06;101033.72;;;29.42;9.12
50105;BME280;47690;39.202;-77.198;2023-02-07T05:57:14;101048.97;;;28.50;9.08
50105;BME280;47690;39.202;-77.198;2023-02-07T06:00:21;101056.50;;;28.09;9.65
50105;BME280;47690;39.202;-77.198;2023-02-07T06:03:26;101054.69;;;27.98;9.51
50105;BME280;47690;39.202;-77.198;2023-02-07T06:06:35;101054.31;;;27.91;9.74
50105;BME280;47690;39.202;-77.198;2023-02-07T06:09:42;101072.59;;;27.83;9.46
50105;BME280;47690;39.202;-77.198;2023-02-07T06:12:50;101056.94;;;27.80;9.78
50105;BME280;47690;39.202;-77.198;2023-02-07T06:16:03;101056.09;;;27.79;9.90
50105;BME280;47690;39.202;-77.198;2023-02-07T06:19:10;101044.63;;;27.67;9.79
50105;BME280;47690;39.202;-77.198;2023-02-07T06:22:14;101047.31;;;27.54;9.95
50105;BME280;47690;39.202;-77.198;2023-02-07T06:26:03;101053.03;;;27.61;9.86
50105;BME280;47690;39.202;-77.198;2023-02-07T06:29:03;101046.09;;;27.47;10.20
50105;BME280;47690;39.202;-77.198;2023-02-07T06:32:05;101051.00;;;27.40;9.69
50105;BME280;47690;39.202;-77.198;2023-02-07T06:35:14;101047.59;;;27.38;9.57
50105;BME280;47690;39.202;-77.198;2023-02-07T06:38:22;101054.59;;;27.39;9.47
50105;BME280;47690;39.202;-77.198;2023-02-07T06:41:32;101051.81;;;27.41;10.01
50105;BME280;47690;39.202;-77.198;2023-02-07T06:44:42;101060.63;;;27.41;9.64
50105;BME280;47690;39.202;-77.198;2023-02-07T06:48:10;101078.34;;;27.28;9.93
50105;BME280;47690;39.202;-77.198;2023-02-07T06:51:09;101088.56;;;27.08;10.00
50105;BME280;47690;39.202;-77.198;2023-02-07T06:54:05;101101.34;;;27.14;9.87
50105;BME280;47690;39.202;-77.198;2023-02-07T06:57:14;101098.59;;;27.16;9.86
50105;BME280;47690;39.202;-77.198;2023-02-07T07:00:22;101105.47;;;27.19;9.64
50105;BME280;47690;39.202;-77.198;2023-02-07T07:07:14;101111.59;;;27.19;10.08
50105;BME280;47690;39.202;-77.198;2023-02-07T07:10:18;101101.47;;;27.13;9.64
50105;BME280;47690;39.202;-77.198;2023-02-07T07:13:49;101102.81;;;27.19;9.79
50105;BME280;47690;39.202;-77.198;2023-02-07T07:17:01;101112.78;;;27.15;9.65
50105;BME280;47690;39.202;-77.198;2023-02-07T07:20:07;101107.63;;;27.00;9.80
50105;BME280;47690;39.202;-77.198;2023-02-07T07:23:14;101118.97;;;26.90;10.03
50105;BME280;47690;39.202;-77.198;2023-02-07T07:26:22;101119.38;;;26.83;10.12
50105;BME280;47690;39.202;-77.198;2023-02-07T07:29:42;101113.78;;;26.75;10.05
50105;BME280;47690;39.202;-77.198;2023-02-07T07:32:49;101114.97;;;26.58;10.29
50105;BME280;47690;39.202;-77.198;2023-02-07T07:36:26;101105.56;;;26.67;10.19
50105;BME280;47690;39.202;-77.198;2023-02-07T07:39:34;101104.59;;;26.42;10.31
50105;BME280;47690;39.202;-77.198;2023-02-07T07:43:02;101096.25;;;26.35;9.96
50105;BME280;47690;39.202;-77.198;2023-02-07T07:46:02;101090.88;;;26.24;10.03
50105;BME280;47690;39.202;-77.198;2023-02-07T07:49:01;101086.66;;;26.21;9.99
50105;BME280;47690;39.202;-77.198;2023-02-07T07:52:06;101093.63;;;26.22;10.20
50105;BME280;47690;39.202;-77.198;2023-02-07T07:55:02;101099.06;;;26.19;10.19
50105;BME280;47690;39.202;-77.198;2023-02-07T07:57:58;101099.59;;;26.89;9.80
50105;BME280;47690;39.202;-77.198;2023-02-07T08:01:32;101090.88;;;26.50;10.06
50105;BME280;47690;39.202;-77.198;2023-02-07T08:04:42;101092.25;;;26.29;9.80
50105;BME280;47690;39.202;-77.198;2023-02-07T08:07:53;101093.78;;;26.19;10.13
50105;BME280;47690;39.202;-77.198;2023-02-07T08:11:03;101098.34;;;26.17;10.15
50105;BME280;47690;39.202;-77.198;2023-02-07T08:14:10;101095.38;;;26.09;9.98
50105;BME280;47690;39.202;-77.198;2023-02-07T08:17:16;101104.34;;;26.06;10.24
50105;BME280;47690;39.202;-77.198;2023-02-07T08:20:26;101090.94;;;26.09;10.28
50105;BME280;47690;39.202;-77.198;2023-02-07T08:23:34;101100.84;;;26.05;10.03
50105;BME280;47690;39.202;-77.198;2023-02-07T08:26:49;101106.28;;;26.69;10.05
50105;BME280;47690;39.202;-77.198;2023-02-07T08:30:21;101124.38;;;26.23;10.11
50105;BME280;47690;39.202;-77.198;2023-02-07T08:33:35;101123.13;;;26.01;10.10
50105;BME280;47690;39.202;-77.198;2023-02-07T08:36:42;101140.53;;;25.91;10.04
50105;BME280;47690;39.202;-77.198;2023-02-07T08:39:50;101137.13;;;25.89;10.19
50105;BME280;47690;39.202;-77.198;2023-02-07T08:43:00;101131.44;;;25.82;10.19
50105;BME280;47690;39.202;-77.198;2023-02-07T08:46:05;101130.63;;;25.67;10.14
50105;BME280;47690;39.202;-77.198;2023-02-07T08:50:00;101122.63;;;25.69;10.15
50105;BME280;47690;39.202;-77.198;2023-02-07T08:53:02;101116.28;;;25.58;10.27
50105;BME280;47690;39.202;-77.198;2023-02-07T08:59:51;101134.81;;;25.57;10.31
50105;BME280;47690;39.202;-77.198;2023-02-07T09:03:10;101139.59;;;25.50;10.36
50105;BME280;47690;39.202;-77.198;2023-02-07T09:06:14;101135.50;;;25.46;10.00
50105;BME280;47690;39.202;-77.198;2023-02-07T09:09:52;101130.69;;;25.53;10.32
50105;BME280;47690;39.202;-77.198;2023-02-07T09:13:18;101131.25;;;25.43;10.18
50105;BME280;47690;39.202;-77.198;2023-02-07T09:16:49;101122.47;;;25.43;10.45
50105;BME280;47690;39.202;-77.198;2023-02-07T09:20:07;101125.25;;;25.41;10.19
50105;BME280;47690;39.202;-77.198;2023-02-07T09:23:14;101127.53;;;25.33;10.29
50105;BME280;47690;39.202;-77.198;2023-02-07T09:26:46;101123.38;;;25.29;10.32
50105;BME280;47690;39.202;-77.198;2023-02-07T09:29:50;101117.00;;;25.18;9.99
50105;BME280;47690;39.202;-77.198;2023-02-07T09:33:03;101115.19;;;25.19;10.12
50105;BME280;47690;39.202;-77.198;2023-02-07T09:36:23;101126.97;;;25.28;10.45
50105;BME280;47690;39.202;-77.198;2023-02-07T09:39:37;101122.28;;;25.18;10.12
50105;BME280;47690;39.202;-77.198;2023-02-07T09:42:56;101133.88;;;25.16;10.39
50105;BME280;47690;39.202;-77.198;2023-02-07T09:46:27;101115.97;;;25.21;10.36
50105;BME280;47690;39.202;-77.198;2023-02-07T09:53:21;101098.44;;;25.20;10.43
50105;BME280;47690;39.202;-77.198;2023-02-07T09:56:34;101116.16;;;25.18;10.37
50105;BME280;47690;39.202;-77.198;2023-02-07T10:00:02;101122.34;;;25.31;10.24
50105;BME280;47690;39.202;-77.198;2023-02-07T10:03:19;101124.88;;;25.33;10.36
50105;BME280;47690;39.202;-77.198;2023-02-07T10:06:27;101134.47;;;25.34;10.10
50105;BME280;47690;39.202;-77.198;2023-02-07T10:09:38;101134.56;;;25.32;10.39
50105;BME280;47690;39.202;-77.198;2023-02-07T10:25:02;101158.69;;;25.26;10.37
50105;BME280;47690;39.202;-77.198;2023-02-07T10:31:26;101172.38;;;25.18;10.19
50105;BME280;47690;39.202;-77.198;2023-02-07T10:34:38;101171.41;;;25.19;10.15
50105;BME280;47690;39.202;-77.198;2023-02-07T10:37:54;101173.47;;;25.29;10.13
50105;BME280;47690;39.202;-77.198;2023-02-07T10:41:19;101183.00;;;25.17;10.60
50105;BME280;47690;39.202;-77.198;2023-02-07T10:44:26;101175.75;;;25.06;10.32
50105;BME280;47690;39.202;-77.198;2023-02-07T10:47:38;101181.31;;;25.16;10.08
50105;BME280;47690;39.202;-77.198;2023-02-07T10:50:46;101179.91;;;25.10;10.52
50105;BME280;47690;39.202;-77.198;2023-02-07T10:54:09;101175.38;;;25.12;10.34
50105;BME280;47690;39.202;-77.198;2023-02-07T10:57:26;101166.72;;;25.10;10.35
50105;BME280;47690;39.202;-77.198;2023-02-07T11:00:39;101162.84;;;25.16;10.24
50105;BME280;47690;39.202;-77.198;2023-02-07T11:03:42;101184.53;;;25.06;10.13
50105;BME280;47690;39.202;-77.198;2023-02-07T11:07:19;101181.41;;;25.14;10.14
50105;BME280;47690;39.202;-77.198;2023-02-07T11:10:42;101189.13;;;25.17;10.44
50105;BME280;47690;39.202;-77.198;2023-02-07T11:13:52;101193.91;;;25.10;10.07
50105;BME280;47690;39.202;-77.198;2023-02-07T11:16:59;101191.13;;;24.99;10.34
50105;BME280;47690;39.202;-77.198;2023-02-07T11:20:06;101195.81;;;25.08;10.08
50105;BME280;47690;39.202;-77.198;2023-02-07T11:23:18;101183.22;;;24.99;10.37
50105;BME280;47690;39.202;-77.198;2023-02-07T11:26:21;101189.22;;;25.01;10.28
50105;BME280;47690;39.202;-77.198;2023-02-07T11:29:24;101181.97;;;25.05;10.28
50105;BME280;47690;39.202;-77.198;2023-02-07T11:32:31;101178.03;;;25.12;10.36
50105;BME280;47690;39.202;-77.198;2023-02-07T11:35:34;101180.09;;;25.07;10.36
50105;BME280;47690;39.202;-77.198;2023-02-07T11:39:19;101178.59;;;25.03;10.59
50105;BME280;47690;39.202;-77.198;2023-02-07T11:42:29;101167.47;;;24.98;10.70
50105;BME280;47690;39.202;-77.198;2023-02-07T11:45:33;101170.94;;;24.98;10.28
50105;BME280;47690;39.202;-77.198;2023-02-07T11:48:47;101175.31;;;24.99;10.55
50105;BME280;47690;39.202;-77.198;2023-02-07T11:52:06;101180.56;;;24.99;10.47
50105;BME280;47690;39.202;-77.198;2023-02-07T11:55:17;101177.06;;;24.99;10.34
50105;BME280;47690;39.202;-77.198;2023-02-07T11:58:37;101179.25;;;25.06;10.46
50105;BME280;47690;39.202;-77.198;2023-02-07T12:02:22;101193.84;;;25.12;10.37
50105;BME280;47690;39.202;-77.198;2023-02-07T12:05:42;101180.81;;;25.09;10.48
50105;BME280;47690;39.202;-77.198;2023-02-07T12:08:49;101187.31;;;25.18;10.36
50105;BME280;47690;39.202;-77.198;2023-02-07T12:12:02;101203.06;;;25.19;10.31
50105;BME280;47690;39.202;-77.198;2023-02-07T12:22:10;101208.41;;;25.32;10.18
50105;BME280;47690;39.202;-77.198;2023-02-07T12:25:35;101223.94;;;25.37;10.45
50105;BME280;47690;39.202;-77.198;2023-02-07T12:33:18;101222.22;;;25.65;10.47
50105;BME280;47690;39.202;-77.198;2023-02-07T12:36:46;101231.88;;;25.79;10.37
50105;BME280;47690;39.202;-77.198;2023-02-07T12:43:46;101244.19;;;25.51;10.61
50105;BME280;47690;39.202;-77.198;2023-02-07T13:07:20;101234.13;;;25.85;10.63
50105;BME280;47690;39.202;-77.198;2023-02-07T13:10:34;101246.59;;;25.83;10.56
50105;BME280;47690;39.202;-77.198;2023-02-07T13:17:24;101250.91;;;26.12;10.51
50105;BME280;47690;39.202;-77.198;2023-02-07T13:20:58;101261.16;;;26.31;10.32
50105;BME280;47690;39.202;-77.198;2023-02-07T13:24:09;101260.63;;;26.26;10.40
50105;BME280;47690;39.202;-77.198;2023-02-07T13:27:22;101265.69;;;26.29;10.52
50105;BME280;47690;39.202;-77.198;2023-02-07T13:30:34;101273.63;;;26.29;10.43
50105;BME280;47690;39.202;-77.198;2023-02-07T13:34:41;101254.56;;;26.77;10.45
50105;BME280;47690;39.202;-77.198;2023-02-07T13:38:21;101264.50;;;26.86;10.19
50105;BME280;47690;39.202;-77.198;2023-02-07T13:42:16;101279.25;;;27.04;10.14
50105;BME280;47690;39.202;-77.198;2023-02-07T13:49:22;101262.81;;;27.50;10.04
50105;BME280;47690;39.202;-77.198;2023-02-07T13:56:16;101278.66;;;27.76;10.22
50105;BME280;47690;39.202;-77.198;2023-02-07T14:00:15;101282.22;;;28.13;10.37
50105;BME280;47690;39.202;-77.198;2023-02-07T14:03:45;101273.56;;;28.35;10.27
50105;BME280;47690;39.202;-77.198;2023-02-07T14:07:28;101249.19;;;28.66;10.12
50105;BME280;47690;39.202;-77.198;2023-02-07T14:14:38;101246.38;;;29.14;10.18
50105;BME280;47690;39.202;-77.198;2023-02-07T14:18:02;101242.84;;;29.37;10.04
50105;BME280;47690;39.202;-77.198;2023-02-07T14:21:39;101234.88;;;29.60;10.22
50105;BME280;47690;39.202;-77.198;2023-02-07T14:31:23;101227.75;;;31.20;9.10
50105;BME280;47690;39.202;-77.198;2023-02-07T14:38:32;101210.25;;;30.34;10.00
50105;BME280;47690;39.202;-77.198;2023-02-07T14:41:42;101217.56;;;30.21;9.77
50105;BME280;47690;39.202;-77.198;2023-02-07T14:44:59;101218.94;;;30.36;10.00
50105;BME280;47690;39.202;-77.198;2023-02-07T14:48:06;101224.91;;;30.50;9.88
50105;BME280;47690;39.202;-77.198;2023-02-07T14:51:50;101238.97;;;31.65;9.32
50105;BME280;47690;39.202;-77.198;2023-02-07T14:55:03;101236.28;;;31.14;9.70
50105;BME280;47690;39.202;-77.198;2023-02-07T14:58:10;101245.41;;;31.12;9.54
50105;BME280;47690;39.202;-77.198;2023-02-07T15:01:17;101237.91;;;31.27;9.77
50105;BME280;47690;39.202;-77.198;2023-02-07T15:04:23;101232.28;;;31.30;9.70
50105;BME280;47690;39.202;-77.198;2023-02-07T15:07:34;101225.34;;;31.48;9.55
50105;BME280;47690;39.202;-77.198;2023-02-07T15:11:09;101221.75;;;31.69;9.66
50105;BME280;47690;39.202;-77.198;2023-02-07T15:14:26;101211.13;;;31.89;9.45
50105;BME280;47690;39.202;-77.198;2023-02-07T15:17:42;101203.53;;;32.14;9.30
50105;BME280;47690;39.202;-77.198;2023-02-07T15:20:52;101216.13;;;32.32;9.82
50105;BME280;47690;39.202;-77.198;2023-02-07T15:24:06;101197.47;;;32.41;9.19
50105;BME280;47690;39.202;-77.198;2023-02-07T15:27:23;101186.91;;;32.60;9.10
50105;BME280;47690;39.202;-77.198;2023-02-07T15:30:35;101182.34;;;32.70;9.36
50105;BME280;47690;39.202;-77.198;2023-02-07T15:33:50;101179.91;;;32.87;9.18
50105;BME280;47690;39.202;-77.198;2023-02-07T15:37:35;101156.66;;;33.07;8.91
50105;BME280;47690;39.202;-77.198;2023-02-07T15:41:10;101135.91;;;33.01;9.13
50105;BME280;47690;39.202;-77.198;2023-02-07T15:48:51;101157.56;;;33.62;8.61
50105;BME280;47690;39.202;-77.198;2023-02-07T15:51:49;101183.31;;;33.63;8.96
50105;BME280;47690;39.202;-77.198;2023-02-07T15:54:55;101180.38;;;33.74;9.04
50105;BME280;47690;39.202;-77.198;2023-02-07T15:58:06;101186.03;;;33.89;8.83
50105;BME280;47690;39.202;-77.198;2023-02-07T16:01:24;101164.38;;;34.01;8.58
50105;BME280;47690;39.202;-77.198;2023-02-07T16:05:20;101165.47;;;34.08;8.96
50105;BME280;47690;39.202;-77.198;2023-02-07T16:08:55;101158.31;;;34.09;8.49
50105;BME280;47690;39.202;-77.198;2023-02-07T16:12:42;101165.31;;;34.36;8.60
50105;BME280;47690;39.202;-77.198;2023-02-07T16:16:07;101156.66;;;34.42;8.80
50105;BME280;47690;39.202;-77.198;2023-02-07T16:19:46;101152.28;;;34.33;8.47
50105;BME280;47690;39.202;-77.198;2023-02-07T16:22:49;101133.81;;;34.22;8.74
50105;BME280;47690;39.202;-77.198;2023-02-07T16:25:54;101109.75;;;34.22;9.15
50105;BME280;47690;39.202;-77.198;2023-02-07T16:28:59;101102.44;;;34.32;8.57
50105;BME280;47690;39.202;-77.198;2023-02-07T16:32:08;101101.50;;;34.41;8.87
50105;BME280;47690;39.202;-77.198;2023-02-07T16:35:26;101089.91;;;34.59;8.58
50105;BME280;47690;39.202;-77.198;2023-02-07T16:38:34;101083.88;;;34.57;8.46
50105;BME280;47690;39.202;-77.198;2023-02-07T16:41:43;101081.53;;;34.62;8.68
50105;BME280;47690;39.202;-77.198;2023-02-07T16:44:50;101102.75;;;34.55;8.39
50105;BME280;47690;39.202;-77.198;2023-02-07T16:47:59;101088.38;;;34.56;8.42
50105;BME280;47690;39.202;-77.198;2023-02-07T16:51:34;101060.66;;;34.66;8.56
50105;BME280;47690;39.202;-77.198;2023-02-07T16:54:42;101044.38;;;34.51;8.60
50105;BME280;47690;39.202;-77.198;2023-02-07T16:58:27;101046.53;;;34.47;8.89
50105;BME280;47690;39.202;-77.198;2023-02-07T17:01:30;101036.50;;;34.49;8.53
50105;BME280;47690;39.202;-77.198;2023-02-07T17:04:58;101042.94;;;34.73;8.65
50105;BME280;47690;39.202;-77.198;2023-02-07T17:08:04;101037.44;;;34.74;8.66
50105;BME280;47690;39.202;-77.198;2023-02-07T17:11:19;101037.97;;;34.95;8.54
50105;BME280;47690;39.202;-77.198;2023-02-07T17:14:28;101038.03;;;35.11;8.43
50105;BME280;47690;39.202;-77.198;2023-02-07T17:17:35;101037.53;;;35.08;8.54
50105;BME280;47690;39.202;-77.198;2023-02-07T17:20:51;101023.47;;;35.22;8.37
50105;BME280;47690;39.202;-77.198;2023-02-07T17:24:21;101018.94;;;35.31;8.29
50105;BME280;47690;39.202;-77.198;2023-02-07T17:27:30;101023.63;;;35.37;8.30
50105;BME280;47690;39.202;-77.198;2023-02-07T17:30:38;101009.91;;;35.40;8.27
50105;BME280;47690;39.202;-77.198;2023-02-07T17:34:14;100999.69;;;35.44;8.33
50105;BME280;47690;39.202;-77.198;2023-02-07T17:37:47;101014.06;;;35.43;8.26
50105;BME280;47690;39.202;-77.198;2023-02-07T17:41:11;101003.72;;;35.40;8.32
50105;BME280;47690;39.202;-77.198;2023-02-07T17:44:19;100991.66;;;35.36;8.19
50105;BME280;47690;39.202;-77.198;2023-02-07T17:47:34;100982.44;;;35.38;8.12
50105;BME280;47690;39.202;-77.198;2023-02-07T17:50:50;100960.00;;;35.56;8.35
50105;BME280;47690;39.202;-77.198;2023-02-07T17:53:54;100929.88;;;35.62;8.07
50105;BME280;47690;39.202;-77.198;2023-02-07T17:57:03;100941.56;;;35.61;8.43
50105;BME280;47690;39.202;-77.198;2023-02-07T18:00:03;100924.69;;;35.61;8.46
50105;BME280;47690;39.202;-77.198;2023-02-07T18:03:07;100921.00;;;35.62;8.53
50105;BME280;47690;39.202;-77.198;2023-02-07T18:06:20;100916.28;;;35.64;8.23
50105;BME280;47690;39.202;-77.198;2023-02-07T18:09:42;100892.19;;;35.55;8.20
50105;BME280;47690;39.202;-77.198;2023-02-07T18:13:35;100875.94;;;35.65;8.64
50105;BME280;47690;39.202;-77.198;2023-02-07T18:17:19;100877.13;;;35.54;8.19
50105;BME280;47690;39.202;-77.198;2023-02-07T18:20:35;100874.31;;;35.48;8.45
50105;BME280;47690;39.202;-77.198;2023-02-07T18:24:12;100881.47;;;35.64;8.31
50105;BME280;47690;39.202;-77.198;2023-02-07T18:28:47;100893.78;;;35.81;7.92
50105;BME280;47690;39.202;-77.198;2023-02-07T18:32:47;100873.25;;;35.65;8.16
50105;BME280;47690;39.202;-77.198;2023-02-07T18:36:54;100849.16;;;35.65;8.17
50105;BME280;47690;39.202;-77.198;2023-02-07T18:41:44;100818.06;;;35.88;8.18
50105;BME280;47690;39.202;-77.198;2023-02-07T18:45:26;100810.03;;;35.79;8.16
50105;BME280;47690;39.202;-77.198;2023-02-07T18:49:26;100777.78;;;35.73;7.90
50105;BME280;47690;39.202;-77.198;2023-02-07T18:54:03;100763.97;;;35.84;7.98
50105;BME280;47690;39.202;-77.198;2023-02-07T18:58:05;100736.81;;;35.87;8.02
50105;BME280;47690;39.202;-77.198;2023-02-07T19:01:19;100755.50;;;35.72;8.19
50105;BME280;47690;39.202;-77.198;2023-02-07T19:04:37;100773.75;;;35.68;7.97
50105;BME280;47690;39.202;-77.198;2023-02-07T19:08:13;100782.44;;;35.79;8.25
50105;BME280;47690;39.202;-77.198;2023-02-07T19:11:19;100774.78;;;35.67;8.19
50105;BME280;47690;39.202;-77.198;2023-02-07T19:14:26;100768.59;;;35.67;8.48
50105;BME280;47690;39.202;-77.198;2023-02-07T19:17:39;100754.50;;;35.73;8.27
50105;BME280;47690;39.202;-77.198;2023-02-07T19:20:50;100744.06;;;35.78;8.14
50105;BME280;47690;39.202;-77.198;2023-02-07T19:23:56;100743.25;;;35.78;7.89
50105;BME280;47690;39.202;-77.198;2023-02-07T19:27:34;100718.59;;;35.82;8.08
50105;BME280;47690;39.202;-77.198;2023-02-07T19:30:38;100733.72;;;35.75;8.46
50105;BME280;47690;39.202;-77.198;2023-02-07T19:33:39;100753.78;;;35.79;8.53